Positano — IJZJ — position and weather

sailwx.info

Track history (hours):
 
Tides and Currents Weather Stations Pressure Air Temp Water Temp Dewpoint Dewpoint Depression Visibility Wind Speed Wind Dir Waves Ship Positions

Positano

Last reported at 2016-May-31 16:33 UTC. Time now 2016-May-31 17:59 UTC.
Position N 40°37' E 014°20'.

Length 12 m.

MMSI: 247208300.

Date/timePositionNaut miles runAvg speedWind from/ knotsBaromVisibWave heightAir tempDewpointWater temp
2016-May-31 16:33N 40°37' E 014°20'5 5.3
2016-May-31 15:33N 40°33' E 014°14'1 0.3
2016-May-31 12:27N 40°33' E 014°16'0 0.0
2016-May-31 11:23N 40°33' E 014°16'0 0.0
2016-May-31 10:33N 40°33' E 014°16'0 0.3
2016-May-31 09:33N 40°33' E 014°16'3 3.3
2016-May-31 08:33N 40°32' E 014°12'7 7.1
2016-May-31 07:33N 40°36' E 014°20'0 0.0
2016-May-30 16:33N 40°37' E 014°20'5 4.9
2016-May-30 15:32N 40°37' E 014°27'2 2.0
2016-May-30 14:32N 40°38' E 014°29'8 7.1
2016-May-30 13:28N 40°34' E 014°20'2 0.1
2016-May-29 16:25N 40°36' E 014°20'5 6.1
2016-May-29 15:33N 40°33' E 014°14'1 0.6
2016-May-29 14:33N 40°33' E 014°15'0 0.0
2016-May-29 13:33N 40°33' E 014°15'0 0.0
2016-May-29 12:33N 40°34' E 014°15'0 0.0
2016-May-29 11:33N 40°33' E 014°15'0 0.0
2016-May-29 10:33N 40°33' E 014°15'1 0.9
2016-May-29 09:22N 40°32' E 014°15'2 3.1
2016-May-29 08:33N 40°34' E 014°12'5 4.8
2016-May-29 07:33N 40°35' E 014°18'2 1.7
2016-May-29 06:33N 40°37' E 014°20'0 0.0
2016-May-28 16:33N 40°37' E 014°20'7 3.6
2016-May-28 14:33N 40°38' E 014°29'0 0.0
2016-May-28 13:33N 40°37' E 014°29'7 1.2
2016-May-28 07:33N 40°36' E 014°20'0 0.0
2016-May-27 16:26N 40°36' E 014°20'7 3.5
2016-May-27 14:23N 40°37' E 014°29'0 0.0
2016-May-27 13:31N 40°37' E 014°29'8 1.3
2016-May-27 07:12N 40°34' E 014°20'2 3.3
2016-May-27 06:29N 40°36' E 014°20'0 0.0
2016-May-26 16:32N 40°36' E 014°20'5 5.4
2016-May-26 15:33N 40°33' E 014°14'1 0.9
2016-May-26 14:33N 40°33' E 014°16'0 0.0
2016-May-26 13:33N 40°33' E 014°16'0 0.0
2016-May-26 12:33N 40°33' E 014°16'0 0.0
2016-May-26 11:33N 40°33' E 014°16'0 0.0
2016-May-26 10:33N 40°33' E 014°16'1 1.1
2016-May-26 09:33N 40°34' E 014°14'1 1.3
2016-May-26 08:33N 40°32' E 014°15'6 5.6
2016-May-26 07:33N 40°37' E 014°20'2 0.1
2016-May-25 15:33N 40°35' E 014°18'5 5.5
2016-May-25 14:34N 40°32' E 014°12'3 3.1
2016-May-25 13:33N 40°34' E 014°15'0 0.1
2016-May-25 08:12N 40°34' E 014°16'0 0.2
2016-May-25 07:33N 40°33' E 014°16'4 0.1
2016-May-23 16:18N 40°36' E 014°20'5 6.5
2016-May-23 15:33N 40°34' E 014°15'0 0.4
2016-May-23 14:33N 40°33' E 014°15'0 0.0
2016-May-23 13:33N 40°33' E 014°15'0 0.0
2016-May-23 12:33N 40°33' E 014°15'0 0.0
2016-May-23 11:33N 40°33' E 014°15'0 0.0
2016-May-23 10:33N 40°33' E 014°15'1 0.6
2016-May-23 09:33N 40°33' E 014°14'1 0.7
2016-May-23 08:29N 40°33' E 014°14'5 4.8
2016-May-23 07:33N 40°35' E 014°19'2 1.6
2016-May-23 06:33N 40°36' E 014°20'0 0.0
2016-May-22 16:26N 40°36' E 014°20'5 6.0
2016-May-22 15:33N 40°33' E 014°14'1 0.7
2016-May-22 14:33N 40°33' E 014°15'0 0.0
2016-May-22 13:34N 40°33' E 014°15'0 0.0
2016-May-22 12:33N 40°33' E 014°15'0 0.0
2016-May-22 11:33N 40°33' E 014°15'0 0.0
2016-May-22 10:33N 40°33' E 014°15'1 0.8
2016-May-22 09:33N 40°33' E 014°15'1 1.2
2016-May-22 08:33N 40°32' E 014°14'  
Track history (hours):
 
Tides and Currents Weather Stations Pressure Air Temp Water Temp Dewpoint Dewpoint Depression Visibility Wind Speed Wind Dir Waves Ship Positions

Positano

Last reported at 2016-May-31 16:33 UTC. Time now 2016-May-31 17:59 UTC.
Position N 40°37' E 014°20'.

Length 12 m.

MMSI: 247208300.

Date/timePositionNaut miles runAvg speedWind from/ knotsBaromVisibWave heightAir tempDewpointWater temp
2016-May-31 16:33N 40°37' E 014°20'5 5.3
2016-May-31 15:33N 40°33' E 014°14'1 0.3
2016-May-31 12:27N 40°33' E 014°16'0 0.0
2016-May-31 11:23N 40°33' E 014°16'0 0.0
2016-May-31 10:33N 40°33' E 014°16'0 0.3
2016-May-31 09:33N 40°33' E 014°16'3 3.3
2016-May-31 08:33N 40°32' E 014°12'7 7.1
2016-May-31 07:33N 40°36' E 014°20'0 0.0
2016-May-30 16:33N 40°37' E 014°20'5 4.9
2016-May-30 15:32N 40°37' E 014°27'2 2.0
2016-May-30 14:32N 40°38' E 014°29'8 7.1
2016-May-30 13:28N 40°34' E 014°20'2 0.1
2016-May-29 16:25N 40°36' E 014°20'5 6.1
2016-May-29 15:33N 40°33' E 014°14'1 0.6
2016-May-29 14:33N 40°33' E 014°15'0 0.0
2016-May-29 13:33N 40°33' E 014°15'0 0.0
2016-May-29 12:33N 40°34' E 014°15'0 0.0
2016-May-29 11:33N 40°33' E 014°15'0 0.0
2016-May-29 10:33N 40°33' E 014°15'1 0.9
2016-May-29 09:22N 40°32' E 014°15'2 3.1
2016-May-29 08:33N 40°34' E 014°12'5 4.8
2016-May-29 07:33N 40°35' E 014°18'2 1.7
2016-May-29 06:33N 40°37' E 014°20'0 0.0
2016-May-28 16:33N 40°37' E 014°20'7 3.6
2016-May-28 14:33N 40°38' E 014°29'0 0.0
2016-May-28 13:33N 40°37' E 014°29'7 1.2
2016-May-28 07:33N 40°36' E 014°20'0 0.0
2016-May-27 16:26N 40°36' E 014°20'7 3.5
2016-May-27 14:23N 40°37' E 014°29'0 0.0
2016-May-27 13:31N 40°37' E 014°29'8 1.3
2016-May-27 07:12N 40°34' E 014°20'2 3.3
2016-May-27 06:29N 40°36' E 014°20'0 0.0
2016-May-26 16:32N 40°36' E 014°20'5 5.4
2016-May-26 15:33N 40°33' E 014°14'1 0.9
2016-May-26 14:33N 40°33' E 014°16'0 0.0
2016-May-26 13:33N 40°33' E 014°16'0 0.0
2016-May-26 12:33N 40°33' E 014°16'0 0.0
2016-May-26 11:33N 40°33' E 014°16'0 0.0
2016-May-26 10:33N 40°33' E 014°16'1 1.1
2016-May-26 09:33N 40°34' E 014°14'1 1.3
2016-May-26 08:33N 40°32' E 014°15'6 5.6
2016-May-26 07:33N 40°37' E 014°20'2 0.1
2016-May-25 15:33N 40°35' E 014°18'5 5.5
2016-May-25 14:34N 40°32' E 014°12'3 3.1
2016-May-25 13:33N 40°34' E 014°15'0 0.1
2016-May-25 08:12N 40°34' E 014°16'0 0.2
2016-May-25 07:33N 40°33' E 014°16'4 0.1
2016-May-23 16:18N 40°36' E 014°20'5 6.5
2016-May-23 15:33N 40°34' E 014°15'0 0.4
2016-May-23 14:33N 40°33' E 014°15'0 0.0
2016-May-23 13:33N 40°33' E 014°15'0 0.0
2016-May-23 12:33N 40°33' E 014°15'0 0.0
2016-May-23 11:33N 40°33' E 014°15'0 0.0
2016-May-23 10:33N 40°33' E 014°15'1 0.6
2016-May-23 09:33N 40°33' E 014°14'1 0.7
2016-May-23 08:29N 40°33' E 014°14'5 4.8
2016-May-23 07:33N 40°35' E 014°19'2 1.6
2016-May-23 06:33N 40°36' E 014°20'0 0.0
2016-May-22 16:26N 40°36' E 014°20'5 6.0
2016-May-22 15:33N 40°33' E 014°14'1 0.7
2016-May-22 14:33N 40°33' E 014°15'0 0.0
2016-May-22 13:34N 40°33' E 014°15'0 0.0
2016-May-22 12:33N 40°33' E 014°15'0 0.0
2016-May-22 11:33N 40°33' E 014°15'0 0.0
2016-May-22 10:33N 40°33' E 014°15'1 0.8
2016-May-22 09:33N 40°33' E 014°15'1 1.2
2016-May-22 08:33N 40°32' E 014°14'  

Dump ship's entire track history